Time;durP1;ratioP1;P1;durP2;ratioP2;P2;SDS_P1;SDS_P2;PMS_P1;PMS_P2;Temp;Humidity;BMP_temperature;BMP_pressure;BME280_temperature;BME280_humidity;BME280_pressure;Samples;Min_cycle;Max_cycle;Signal;HPM_P1;HPM_P2
2022/02/10 00:14:04;;;;;;;3.30;1.58;;;;;;;-0.68;100.00;95720.22;5071340;28;20031;-67
2022/02/10 00:21:58;;;;;;;2.72;1.35;;;;;;;-0.76;100.00;95708.00;5071232;28;20025;-67
2022/02/10 00:35:48;;;;;;;1.65;0.93;;;;;;;-0.65;100.00;95707.56;5075117;28;20094;-66
2022/02/10 00:38:14;;;;;;;2.78;1.20;;;;;;;-0.66;100.00;95700.63;5074025;28;20049;-66
2022/02/10 00:40:48;;;;;;;2.10;1.30;;;;;;;-0.64;100.00;95696.03;5075029;28;20434;-66
2022/02/10 00:43:23;;;;;;;1.80;1.15;;;;;;;-0.62;100.00;95690.59;5074872;28;20027;-66
2022/02/10 00:45:48;;;;;;;1.52;1.20;;;;;;;-0.55;100.00;95694.13;5075050;28;20086;-66
2022/02/10 00:48:22;;;;;;;1.60;0.90;;;;;;;-0.47;100.00;95693.22;5074222;28;20028;-66
2022/02/10 00:50:58;;;;;;;1.20;0.80;;;;;;;-0.40;100.00;95688.88;5074831;28;20029;-66
2022/02/10 00:53:27;;;;;;;2.13;1.05;;;;;;;-0.36;100.00;95679.59;5056913;28;20025;-66
2022/02/10 00:55:53;;;;;;;0.88;0.77;;;;;;;-0.30;100.00;95679.69;5074569;28;20060;-66
2022/02/10 00:58:25;;;;;;;1.83;1.10;;;;;;;-0.15;100.00;95674.41;5056417;28;20150;-66
2022/02/10 01:10:26;;;;;;;1.75;1.00;;;;;;;0.06;100.00;95651.75;5074125;28;20078;-66
2022/02/10 01:30:41;;;;;;;1.55;0.90;;;;;;;0.08;100.00;95640.03;5074347;28;20040;-65
2022/02/10 01:33:09;;;;;;;2.10;1.00;;;;;;;0.13;100.00;95636.84;5074011;28;20493;-65
2022/02/10 01:35:34;;;;;;;1.67;1.17;;;;;;;0.17;100.00;95635.47;5039779;28;20044;-65
2022/02/10 01:38:03;;;;;;;2.08;1.50;;;;;;;0.19;100.00;95636.09;5071578;28;20176;-65
2022/02/10 02:05:49;;;;;;;2.63;1.98;;;;;;;0.32;100.00;95633.59;5074345;28;20403;-65
2022/02/10 02:08:15;;;;;;;3.85;2.38;;;;;;;0.47;100.00;95644.91;5074117;28;20082;-65
2022/02/10 02:10:40;;;;;;;4.88;2.28;;;;;;;0.54;100.00;95640.53;5056304;28;20418;-65
2022/02/10 02:13:09;;;;;;;5.13;2.30;;;;;;;0.56;100.00;95632.41;5073995;28;20472;-65
2022/02/10 02:15:37;;;;;;;3.85;2.30;;;;;;;0.52;100.00;95639.88;5073768;28;20123;-65
2022/02/10 02:18:03;;;;;;;6.75;2.58;;;;;;;0.44;100.00;95632.13;5055954;28;20032;-65
2022/02/10 02:20:28;;;;;;;5.28;2.33;;;;;;;0.33;100.00;95637.06;5073790;28;20025;-64
2022/02/10 02:22:54;;;;;;;3.97;2.20;;;;;;;0.36;100.00;95640.13;5056013;28;20513;-65
2022/02/10 02:25:24;;;;;;;3.55;2.47;;;;;;;0.47;100.00;95634.38;5073710;28;20032;-65
2022/02/10 02:27:56;;;;;;;5.45;2.10;;;;;;;0.51;100.00;95635.59;5055683;28;20120;-65
2022/02/10 02:30:37;;;;;;;3.95;2.50;;;;;;;0.49;100.00;95632.34;5073677;28;20537;-65
2022/02/10 03:06:32;;;;;;;4.07;2.00;;;;;;;-0.46;100.00;95650.13;5073267;28;20047;-65
2022/02/10 03:09:02;;;;;;;5.07;2.42;;;;;;;-0.57;100.00;95651.38;5072935;28;20070;-65
2022/02/10 03:11:30;;;;;;;6.00;2.67;;;;;;;-0.73;100.00;95646.31;5072720;28;20037;-65
2022/02/10 04:00:48;;;;;;;6.00;2.70;;;;;;;-1.22;100.00;95750.09;5071678;28;20072;-65
2022/02/10 04:16:18;;;;;;;2.97;2.00;;;;;;;-1.27;100.00;95777.91;5072053;28;20077;-65
2022/02/10 04:27:01;;;;;;;3.28;2.08;;;;;;;-1.29;100.00;95778.09;5071795;28;20087;-65
2022/02/10 04:32:25;;;;;;;4.35;1.98;;;;;;;-1.36;100.00;95781.59;5072120;28;20040;-66
2022/02/10 05:02:55;;;;;;;3.83;2.20;;;;;;;-1.68;100.00;95791.28;5071604;28;20537;-66
2022/02/10 05:06:07;;;;;;;3.47;1.70;;;;;;;-1.59;100.00;95789.44;5071079;28;20479;-66
2022/02/10 05:19:17;;;;;;;4.88;2.63;;;;;;;-1.56;100.00;95805.66;5057595;28;20035;-66
2022/02/10 05:37:53;;;;;;;5.78;2.67;;;;;;;-1.32;100.00;95809.97;5058571;28;20142;-66
2022/02/10 05:43:38;;;;;;;6.55;2.22;;;;;;;-1.16;100.00;95811.69;5074849;28;20028;-65
2022/02/10 05:56:54;;;;;;;4.95;2.10;;;;;;;-1.13;100.00;95792.13;5074574;28;20028;-66
2022/02/10 06:54:25;;;;;;;4.97;2.33;;;;;;;-1.00;100.00;95777.38;5070258;28;20039;-65
2022/02/10 07:13:16;;;;;;;5.78;2.50;;;;;;;-1.19;100.00;95780.50;5070825;28;20025;-63
2022/02/10 07:53:51;;;;;;;3.67;2.60;;;;;;;0.32;100.00;95815.41;5072688;28;20093;-64
2022/02/10 08:56:41;;;;;;;5.30;2.67;;;;;;;5.90;100.00;95663.94;5075684;28;20028;-64
2022/02/10 09:04:27;;;;;;;9.48;2.80;;;;;;;6.53;100.00;95758.59;5075575;28;20031;-65
2022/02/10 09:07:25;;;;;;;4.05;2.20;;;;;;;6.81;100.00;95792.66;5075352;28;20024;-65
2022/02/10 09:15:21;;;;;;;4.57;2.60;;;;;;;7.06;100.00;95873.28;5075542;28;20016;-65
2022/02/10 09:24:30;;;;;;;7.05;2.30;;;;;;;7.40;100.00;95914.47;5075102;28;20398;-63
2022/02/10 09:59:00;;;;;;;4.55;3.10;;;;;;;9.83;100.00;96035.44;5074056;28;20033;-67
2022/02/10 10:04:04;;;;;;;9.73;3.70;;;;;;;9.58;100.00;96039.22;5074569;28;20024;-67
2022/02/10 10:09:36;;;;;;;10.68;4.10;;;;;;;9.78;100.00;96021.97;5040160;28;20032;-67
2022/02/10 10:12:29;;;;;;;7.65;3.28;;;;;;;10.01;100.00;96024.56;5057812;28;20398;-67
2022/02/10 10:15:47;;;;;;;5.65;3.20;;;;;;;10.30;100.00;96037.97;5073797;28;20074;-67
2022/02/10 10:21:36;;;;;;;5.97;3.38;;;;;;;10.69;100.00;96073.78;5074454;28;20085;-67
2022/02/10 10:51:51;;;;;;;4.95;3.28;;;;;;;11.35;100.00;96096.34;5072319;28;20111;-67
2022/02/10 10:54:32;;;;;;;4.95;2.90;;;;;;;11.74;100.00;96096.38;5071924;28;20017;-67
2022/02/10 10:57:04;;;;;;;7.43;3.00;;;;;;;11.99;100.00;96095.94;5073081;28;20022;-68
2022/02/10 10:59:42;;;;;;;7.00;3.40;;;;;;;12.15;100.00;96106.59;5073330;28;20025;-68
2022/02/10 11:44:25;;;;;;;8.85;3.58;;;;;;;13.75;100.00;96122.16;5071111;28;20028;-68
2022/02/10 14:25:44;;;;;;;7.88;4.32;;;;;;;13.80;100.00;95974.13;5014408;28;20033;-65
2022/02/10 14:28:10;;;;;;;10.50;4.03;;;;;;;13.62;100.00;95972.69;5013990;28;20028;-65
2022/02/10 14:30:35;;;;;;;10.70;4.60;;;;;;;13.59;100.00;95981.28;5013208;28;20025;-65
2022/02/10 14:33:00;;;;;;;9.20;4.35;;;;;;;13.57;100.00;95974.56;5013105;28;20026;-65
2022/02/10 14:35:34;;;;;;;7.43;3.97;;;;;;;13.55;100.00;95969.41;5014060;28;20540;-65
2022/02/10 16:18:22;;;;;;;7.50;3.97;;;;;;;8.22;100.00;95495.75;5012620;28;20041;-65
2022/02/10 16:20:56;;;;;;;9.23;4.10;;;;;;;8.05;100.00;95487.72;5012588;28;20029;-66
2022/02/10 16:23:24;;;;;;;12.60;3.85;;;;;;;7.94;100.00;95469.94;5011992;28;20054;-65
2022/02/10 16:25:59;;;;;;;12.02;4.38;;;;;;;7.85;100.00;95455.34;5031762;28;20559;-66
2022/02/10 16:28:30;;;;;;;9.32;4.07;;;;;;;7.70;100.00;95434.53;5032211;28;20068;-66
2022/02/10 16:30:56;;;;;;;9.63;4.25;;;;;;;7.57;100.00;95434.81;5032298;28;20445;-66
2022/02/10 16:33:21;;;;;;;8.20;3.72;;;;;;;7.46;100.00;95411.66;5031919;28;20049;-65
2022/02/10 16:35:47;;;;;;;13.15;4.45;;;;;;;7.36;100.00;95404.28;5005046;28;20116;-65
2022/02/10 16:38:12;;;;;;;12.65;4.65;;;;;;;7.29;100.00;95400.97;5031119;28;20044;-66
2022/02/10 16:40:41;;;;;;;14.52;4.60;;;;;;;7.22;100.00;95386.94;4997283;28;20056;-66
2022/02/10 16:43:07;;;;;;;8.93;4.07;;;;;;;7.18;100.00;95380.50;5030439;28;20033;-66
2022/02/10 16:45:33;;;;;;;9.82;3.75;;;;;;;7.07;100.00;95376.81;5019930;28;20436;-65
2022/02/10 16:47:59;;;;;;;8.25;3.83;;;;;;;7.00;100.00;95370.78;5017814;28;20057;-65
2022/02/10 16:50:25;;;;;;;9.30;3.65;;;;;;;6.89;100.00;95375.09;5012126;28;20038;-66
2022/02/10 16:52:59;;;;;;;11.57;4.25;;;;;;;6.80;100.00;95379.16;5016847;28;20032;-66
2022/02/10 17:19:36;;;;;;;11.52;3.95;;;;;;;5.74;100.00;95399.50;5029150;28;20041;-65
2022/02/10 17:54:08;;;;;;;12.48;4.20;;;;;;;3.28;100.00;95496.63;5004129;28;20053;-65
2022/02/10 17:56:34;;;;;;;12.20;4.22;;;;;;;3.17;100.00;95509.47;5033113;28;20021;-65
2022/02/10 17:59:01;;;;;;;10.45;4.15;;;;;;;3.07;100.00;95514.41;5031469;28;20022;-65
2022/02/10 18:01:26;;;;;;;8.40;4.22;;;;;;;2.94;100.00;95518.91;5015854;28;20117;-67
2022/02/10 18:03:52;;;;;;;8.40;4.05;;;;;;;2.83;100.00;95529.09;5030322;28;20100;-67
2022/02/10 18:06:23;;;;;;;8.90;4.22;;;;;;;2.71;100.00;95536.00;5015029;28;20037;-66
2022/02/10 18:16:43;;;;;;;12.60;4.93;;;;;;;2.73;100.00;95578.97;5032888;28;20033;-65
2022/02/10 18:19:25;;;;;;;10.80;5.07;;;;;;;2.68;100.00;95588.50;5014505;28;20048;-65
2022/02/10 19:10:15;;;;;;;13.18;5.30;;;;;;;2.13;100.00;95673.19;5007966;28;20040;-67
2022/02/10 19:12:51;;;;;;;13.65;5.05;;;;;;;2.15;100.00;95665.06;5011294;28;20040;-67
2022/02/10 19:15:23;;;;;;;10.13;4.60;;;;;;;2.15;100.00;95673.81;4980808;28;20044;-67
2022/02/10 19:17:50;;;;;;;8.70;5.40;;;;;;;2.23;100.00;95688.69;5022641;28;20495;-66
2022/02/10 19:20:17;;;;;;;13.77;5.70;;;;;;;2.28;100.00;95692.38;5012513;28;20030;-67
2022/02/10 19:22:49;;;;;;;8.63;5.03;;;;;;;2.32;100.00;95698.06;5018795;28;20448;-65
2022/02/10 19:25:16;;;;;;;22.67;8.93;;;;;;;2.35;100.00;95688.94;5014907;28;20040;-65
2022/02/10 19:27:43;;;;;;;11.32;5.88;;;;;;;2.39;100.00;95690.16;5012329;28;20296;-65
2022/02/10 19:30:11;;;;;;;13.95;5.50;;;;;;;2.44;100.00;95685.09;5011579;28;20030;-65
2022/02/10 19:32:40;;;;;;;12.95;5.40;;;;;;;2.49;100.00;95687.94;5012130;28;20056;-64
2022/02/10 19:35:07;;;;;;;15.80;5.57;;;;;;;2.54;100.00;95693.47;5012185;28;20489;-65
2022/02/10 19:37:33;;;;;;;11.93;5.25;;;;;;;2.58;100.00;95692.03;5012109;28;20054;-64
2022/02/10 19:40:01;;;;;;;13.43;5.10;;;;;;;2.59;100.00;95681.25;5047104;22;20526;-62
2022/02/10 19:42:30;;;;;;;12.60;4.90;;;;;;;2.58;100.00;95681.47;5018447;28;20034;-63
2022/02/10 19:44:59;;;;;;;12.82;5.80;;;;;;;2.59;100.00;95683.09;5011980;28;20025;-60
2022/02/10 19:47:26;;;;;;;9.40;5.35;;;;;;;2.64;100.00;95682.50;5017710;28;20038;-65
2022/02/10 19:49:51;;;;;;;11.70;5.18;;;;;;;2.68;100.00;95678.44;5002802;28;20026;-61
2022/02/10 19:52:18;;;;;;;9.60;4.97;;;;;;;2.70;100.00;95676.38;5011331;28;20036;-64
2022/02/10 19:54:51;;;;;;;7.72;4.60;;;;;;;2.73;100.00;95671.53;4992356;28;20018;-63
2022/02/10 19:57:23;;;;;;;7.72;5.05;;;;;;;2.77;100.00;95662.16;4975061;28;20473;-63
2022/02/10 19:59:48;;;;;;;10.20;5.13;;;;;;;2.81;100.00;95657.28;4992043;28;20037;-63
2022/02/10 20:02:20;;;;;;;11.32;4.90;;;;;;;2.87;100.00;95662.59;4974735;28;20022;-63
2022/02/10 20:04:46;;;;;;;13.75;4.80;;;;;;;2.92;100.00;95657.50;4975470;28;20033;-65
2022/02/10 20:07:12;;;;;;;10.95;5.38;;;;;;;3.01;100.00;95659.94;4992273;28;20027;-62
2022/02/10 20:09:37;;;;;;;12.93;5.35;;;;;;;3.04;100.00;95652.44;4991996;28;20026;-63
2022/02/10 20:12:03;;;;;;;9.05;5.00;;;;;;;3.10;100.00;95650.78;4992174;28;20034;-63
2022/02/10 20:14:29;;;;;;;9.70;5.38;;;;;;;3.13;100.00;95645.06;4992209;28;20477;-62
2022/02/10 20:16:58;;;;;;;12.82;5.07;;;;;;;3.15;100.00;95643.06;4992049;28;20031;-62
2022/02/10 20:19:27;;;;;;;9.40;5.00;;;;;;;3.17;100.00;95646.31;4991969;28;20034;-62
2022/02/10 20:21:52;;;;;;;13.65;4.97;;;;;;;3.19;100.00;95642.44;4992109;28;20041;-65
2022/02/10 20:24:18;;;;;;;12.63;5.43;;;;;;;3.26;100.00;95642.44;5002377;28;20393;-64
2022/02/10 20:26:46;;;;;;;12.60;5.47;;;;;;;3.32;100.00;95638.13;5011693;28;20084;-63
2022/02/10 20:29:12;;;;;;;12.52;5.60;;;;;;;3.35;100.00;95638.53;5011522;28;20068;-62
2022/02/10 20:31:39;;;;;;;13.02;6.10;;;;;;;3.42;100.00;95642.00;5011513;28;20069;-62
2022/02/10 20:34:10;;;;;;;11.05;4.93;;;;;;;3.46;100.00;95637.91;5011822;28;20022;-63
2022/02/10 20:36:36;;;;;;;10.00;5.10;;;;;;;3.52;100.00;95643.41;5011448;28;20506;-63
2022/02/10 20:39:06;;;;;;;14.63;5.80;;;;;;;3.56;100.00;95628.72;5011377;28;20026;-62
2022/02/10 20:41:34;;;;;;;10.52;6.28;;;;;;;3.63;100.00;95622.38;5006959;28;20038;-62
2022/02/10 20:44:00;;;;;;;14.82;6.00;;;;;;;3.66;100.00;95629.91;4995760;28;20022;-62
2022/02/10 20:46:28;;;;;;;9.70;5.60;;;;;;;3.69;100.00;95626.03;4996458;28;20026;-65
2022/02/10 20:49:03;;;;;;;14.75;6.68;;;;;;;3.70;100.00;95617.91;5013963;28;20096;-61
2022/02/10 20:51:28;;;;;;;10.63;6.32;;;;;;;3.71;100.00;95624.81;5015229;28;20030;-63
2022/02/10 20:53:56;;;;;;;11.70;5.93;;;;;;;3.73;100.00;95612.16;5002768;28;20053;-63
2022/02/10 20:56:22;;;;;;;9.45;5.70;;;;;;;3.77;100.00;95605.41;4995341;28;20026;-62
2022/02/10 20:59:06;;;;;;;13.27;6.72;;;;;;;3.81;100.00;95607.69;4978154;28;20085;-62
2022/02/10 21:01:31;;;;;;;16.88;6.90;;;;;;;3.83;100.00;95592.38;4978031;28;20030;-62
2022/02/10 21:04:00;;;;;;;9.77;5.82;;;;;;;3.86;100.00;95598.06;4995487;28;20026;-63
2022/02/10 21:06:48;;;;;;;15.05;6.57;;;;;;;3.88;100.00;95601.31;4962201;28;20037;-63
2022/02/10 21:09:31;;;;;;;11.65;6.40;;;;;;;3.87;100.00;95594.38;4995357;28;20023;-63
2022/02/10 21:11:57;;;;;;;13.27;6.25;;;;;;;3.90;100.00;95598.44;4995183;28;20022;-63
2022/02/10 21:14:26;;;;;;;13.85;6.00;;;;;;;3.91;100.00;95592.16;4995437;28;20117;-63
2022/02/10 21:16:51;;;;;;;10.77;6.18;;;;;;;3.91;100.00;95590.31;4995072;28;20027;-63
2022/02/10 21:19:20;;;;;;;13.40;6.05;;;;;;;3.91;100.00;95581.53;4977541;28;20022;-62
2022/02/10 21:21:52;;;;;;;11.15;6.95;;;;;;;3.92;100.00;95586.63;4978149;28;20022;-62
2022/02/10 21:24:24;;;;;;;10.23;5.90;;;;;;;3.94;100.00;95581.13;4971883;28;20030;-63
2022/02/10 21:27:27;;;;;;;9.45;6.07;;;;;;;3.92;100.00;95569.91;4978575;28;20030;-63
2022/02/10 21:29:35;;;;;;;12.13;5.97;;;;;;;3.93;100.00;95572.34;4994462;28;20053;-63
2022/02/10 21:32:04;;;;;;;11.57;5.68;;;;;;;3.95;100.00;95575.59;4994670;28;20053;-65
2022/02/10 21:34:34;;;;;;;14.63;6.03;;;;;;;3.96;100.00;95560.50;4994625;28;20362;-64
2022/02/10 21:37:08;;;;;;;12.93;5.82;;;;;;;3.95;100.00;95553.59;4994677;28;20018;-64
2022/02/10 21:47:52;;;;;;;10.77;5.85;;;;;;;4.01;100.00;95548.22;4999607;28;20044;-63
2022/02/10 21:55:55;;;;;;;13.55;6.22;;;;;;;4.06;100.00;95529.88;4994635;28;20028;-65
2022/02/10 22:11:57;;;;;;;11.23;6.10;;;;;;;4.31;100.00;95506.03;4994613;28;20037;-63
2022/02/10 22:18:18;;;;;;;11.77;5.38;;;;;;;4.40;100.00;95505.78;4994141;28;20037;-64
2022/02/10 22:19:56;;;;;;;13.70;5.80;;;;;;;4.43;100.00;95494.72;4986348;28;20043;-64
2022/02/10 22:22:32;;;;;;;12.13;5.70;;;;;;;4.46;100.00;95497.78;4997940;28;20025;-65
2022/02/10 22:24:58;;;;;;;15.05;5.35;;;;;;;4.50;100.00;95498.97;4998195;28;20734;-64
2022/02/10 22:27:27;;;;;;;11.45;5.40;;;;;;;4.53;100.00;95497.72;4994054;28;20473;-64
2022/02/10 22:30:02;;;;;;;8.57;4.85;;;;;;;4.60;100.00;95499.28;4993656;28;20401;-65
2022/02/10 22:33:03;;;;;;;8.40;5.00;;;;;;;4.67;100.00;95493.94;4994194;28;20437;-63
2022/02/10 22:35:25;;;;;;;9.23;4.68;;;;;;;4.69;100.00;95483.91;4992063;28;20050;-64
2022/02/10 22:37:52;;;;;;;11.00;5.45;;;;;;;4.69;100.00;95494.53;4976552;28;20121;-63
2022/02/10 22:40:42;;;;;;;9.50;5.40;;;;;;;4.69;100.00;95496.38;5001304;28;20053;-65
2022/02/10 22:43:08;;;;;;;8.60;4.95;;;;;;;4.67;100.00;95493.94;4995638;28;20030;-64
2022/02/10 22:45:36;;;;;;;13.93;5.18;;;;;;;4.66;100.00;95501.06;4993959;28;20033;-63
2022/02/10 22:48:02;;;;;;;9.90;5.32;;;;;;;4.66;100.00;95497.59;5003901;28;20025;-64
2022/02/10 22:50:30;;;;;;;12.90;5.90;;;;;;;4.63;100.00;95496.19;5013258;28;20030;-64
2022/02/10 22:52:55;;;;;;;12.82;5.97;;;;;;;4.59;100.00;95497.66;4996105;28;20033;-64
2022/02/10 22:55:21;;;;;;;8.88;5.07;;;;;;;4.59;100.00;95499.50;5013706;28;20400;-63
2022/02/10 22:57:52;;;;;;;13.25;5.85;;;;;;;4.59;100.00;95507.47;5013691;28;20068;-65
2022/02/10 23:00:31;;;;;;;9.52;5.20;;;;;;;4.61;100.00;95494.78;4996258;28;20026;-65
2022/02/10 23:02:56;;;;;;;13.88;5.70;;;;;;;4.63;100.00;95496.19;4995939;28;20026;-64
2022/02/10 23:05:23;;;;;;;10.02;5.80;;;;;;;4.62;100.00;95485.78;4996052;28;20042;-65
2022/02/10 23:07:58;;;;;;;10.63;5.85;;;;;;;4.61;100.00;95484.19;5013422;28;20033;-64
2022/02/10 23:13:25;;;;;;;11.07;5.15;;;;;;;4.52;100.00;95466.91;5013532;28;20380;-65
2022/02/10 23:15:51;;;;;;;13.82;6.28;;;;;;;4.52;100.00;95477.53;5013365;28;20041;-65
2022/02/10 23:18:19;;;;;;;14.38;5.30;;;;;;;4.51;100.00;95468.75;4995603;28;20030;-65
2022/02/10 23:20:49;;;;;;;13.77;5.72;;;;;;;4.56;100.00;95476.06;5013272;28;20028;-65
2022/02/10 23:23:19;;;;;;;13.48;5.60;;;;;;;4.56;100.00;95474.22;4995673;28;20045;-64
2022/02/10 23:25:47;;;;;;;10.70;5.65;;;;;;;4.56;100.00;95495.44;5013340;28;20045;-65
2022/02/10 23:28:24;;;;;;;11.98;5.20;;;;;;;4.56;100.00;95514.03;4995484;28;20428;-64
2022/02/10 23:30:54;;;;;;;10.70;5.55;;;;;;;4.58;100.00;95500.53;5013191;28;20021;-64
2022/02/10 23:33:39;;;;;;;9.80;5.25;;;;;;;4.60;100.00;95490.50;5013098;28;20033;-66
2022/02/10 23:43:54;;;;;;;10.13;5.47;;;;;;;4.53;100.00;95477.28;4993511;28;20026;-66
2022/02/10 23:46:21;;;;;;;11.00;4.80;;;;;;;4.52;100.00;95485.47;4993244;28;20101;-66
2022/02/10 23:48:46;;;;;;;8.98;5.05;;;;;;;4.55;100.00;95508.91;4998478;28;20031;-66
2022/02/10 23:51:17;;;;;;;11.18;6.32;;;;;;;4.58;100.00;95514.63;4993081;28;20033;-65
2022/02/10 23:53:45;;;;;;;15.05;5.95;;;;;;;4.62;100.00;95515.78;4993210;28;20381;-65
2022/02/10 23:56:32;;;;;;;8.38;4.57;;;;;;;4.67;100.00;95520.47;4975675;28;20146;-65
2022/02/10 23:59:30;;;;;;;11.75;5.88;;;;;;;4.74;100.00;95515.09;4993116;28;20034;-65
